Time;durP1;ratioP1;P1;durP2;ratioP2;P2;SDS_P1;SDS_P2;PMS_P1;PMS_P2;Temp;Humidity;BMP_temperature;BMP_pressure;BME280_temperature;BME280_humidity;BME280_pressure;Samples;Min_cycle;Max_cycle;Signal;HPM_P1;HPM_P2
2023/12/19 00:01:12;;;;;;;28.42;8.32;;;;;;;;;;5059592;28;20464;-72
2023/12/19 00:03:38;;;;;;;45.70;10.98;;;;;;;;;;5060621;28;20056;-72
2023/12/19 00:06:05;;;;;;;38.80;9.13;;;;;;;;;;5060127;28;20047;-72
2023/12/19 00:08:30;;;;;;;49.17;11.38;;;;;;;;;;5067413;28;20040;-72
2023/12/19 00:10:56;;;;;;;49.17;10.68;;;;;;;;;;5065942;28;20412;-72
2023/12/19 00:13:22;;;;;;;49.03;11.07;;;;;;;;;;5064589;28;20048;-72
2023/12/19 00:15:48;;;;;;;42.40;9.80;;;;;;;;;;5065699;28;20048;-72
2023/12/19 00:18:20;;;;;;;41.42;10.65;;;;;;;;;;5066851;28;20052;-72
2023/12/19 00:20:47;;;;;;;34.72;9.82;;;;;;;;;;5067029;28;20055;-72
2023/12/19 00:23:13;;;;;;;36.45;11.23;;;;;;;;;;5067540;28;20044;-72
2023/12/19 00:25:39;;;;;;;49.13;12.27;;;;;;;;;;5060004;28;20378;-71
2023/12/19 00:28:05;;;;;;;47.28;12.57;;;;;;;;;;5068056;28;20110;-72
2023/12/19 00:30:31;;;;;;;50.72;13.38;;;;;;;;;;5065672;28;20041;-72
2023/12/19 00:33:00;;;;;;;50.38;12.77;;;;;;;;;;5064377;28;20470;-72
2023/12/19 00:35:26;;;;;;;44.85;12.98;;;;;;;;;;5063037;28;20140;-72
2023/12/19 00:37:52;;;;;;;34.85;11.50;;;;;;;;;;5064265;28;20159;-72
2023/12/19 00:40:18;;;;;;;44.60;15.02;;;;;;;;;;5071954;28;20052;-72
2023/12/19 00:42:44;;;;;;;42.03;12.98;;;;;;;;;;5067465;28;20044;-72
2023/12/19 00:45:11;;;;;;;35.22;14.00;;;;;;;;;;5071262;28;20111;-72
2023/12/19 00:47:38;;;;;;;42.17;14.15;;;;;;;;;;5063964;28;20455;-72
2023/12/19 00:50:05;;;;;;;49.95;14.95;;;;;;;;;;5062684;28;20060;-72
2023/12/19 00:52:31;;;;;;;35.22;14.25;;;;;;;;;;5066717;28;20040;-72
2023/12/19 00:54:57;;;;;;;37.97;13.85;;;;;;;;;;5069703;28;20047;-72
2023/12/19 00:57:23;;;;;;;41.78;13.80;;;;;;;;;;5064939;28;20036;-72
2023/12/19 00:59:49;;;;;;;33.25;13.68;;;;;;;;;;5063237;28;20499;-72
2023/12/19 01:02:15;;;;;;;31.13;12.13;;;;;;;;;;5061847;28;20044;-72
2023/12/19 01:04:41;;;;;;;24.13;11.23;;;;;;;;;;5066447;28;20055;-72
2023/12/19 01:07:07;;;;;;;23.40;9.95;;;;;;;;;;5060844;28;20059;-72
2023/12/19 01:09:33;;;;;;;26.73;11.93;;;;;;;;;;5070673;28;20059;-72
2023/12/19 01:11:59;;;;;;;27.50;10.93;;;;;;;;;;5063503;28;20036;-72
2023/12/19 01:14:25;;;;;;;20.85;9.65;;;;;;;;;;5067782;28;20052;-72
2023/12/19 01:16:51;;;;;;;27.65;10.80;;;;;;;;;;5064239;28;20044;-72
2023/12/19 01:19:17;;;;;;;24.33;11.23;;;;;;;;;;5055243;28;20067;-72
2023/12/19 01:21:43;;;;;;;19.08;10.43;;;;;;;;;;5066947;28;20365;-72
2023/12/19 01:24:09;;;;;;;21.98;9.60;;;;;;;;;;5066032;28;20048;-72
2023/12/19 01:26:35;;;;;;;24.08;10.55;;;;;;;;;;5060628;28;20063;-72
2023/12/19 01:29:11;;;;;;;22.67;11.00;;;;;;;;;;5067346;28;20044;-72
2023/12/19 01:31:37;;;;;;;18.27;9.45;;;;;;;;;;5063499;28;20336;-72
2023/12/19 01:34:03;;;;;;;22.70;11.43;;;;;;;;;;5062530;28;20036;-72
2023/12/19 01:36:29;;;;;;;20.52;10.30;;;;;;;;;;5062431;28;20377;-72
2023/12/19 01:38:55;;;;;;;24.27;10.82;;;;;;;;;;5060554;28;20051;-72
2023/12/19 01:41:24;;;;;;;21.35;10.20;;;;;;;;;;5061326;28;20083;-72
2023/12/19 01:43:50;;;;;;;15.80;9.50;;;;;;;;;;5062088;28;20043;-72
2023/12/19 01:46:17;;;;;;;14.38;8.40;;;;;;;;;;5060579;28;20041;-72
2023/12/19 01:48:44;;;;;;;17.08;9.13;;;;;;;;;;5067594;28;20424;-72
2023/12/19 01:51:11;;;;;;;13.75;8.43;;;;;;;;;;5067999;28;20148;-72
2023/12/19 01:53:38;;;;;;;18.42;10.85;;;;;;;;;;5061412;28;20052;-72
2023/12/19 01:56:05;;;;;;;16.92;9.98;;;;;;;;;;5063146;28;20052;-72
2023/12/19 01:58:31;;;;;;;12.98;8.38;;;;;;;;;;5060849;28;20054;-72
2023/12/19 02:00:58;;;;;;;18.25;10.02;;;;;;;;;;5062643;28;20099;-72
2023/12/19 02:03:24;;;;;;;21.13;11.00;;;;;;;;;;5062032;28;20048;-72
2023/12/19 02:05:51;;;;;;;21.50;10.85;;;;;;;;;;5060994;28;20451;-72
2023/12/19 02:08:17;;;;;;;21.50;11.13;;;;;;;;;;5060008;28;20082;-72
2023/12/19 02:10:44;;;;;;;17.40;10.32;;;;;;;;;;5064820;28;20048;-72
2023/12/19 02:13:10;;;;;;;19.35;10.95;;;;;;;;;;5063410;28;20048;-72
2023/12/19 02:15:36;;;;;;;16.60;9.93;;;;;;;;;;5061881;28;20048;-72
2023/12/19 02:18:18;;;;;;;15.18;9.40;;;;;;;;;;5065652;28;20041;-72
2023/12/19 02:20:44;;;;;;;16.35;10.50;;;;;;;;;;5063277;28;20087;-72
2023/12/19 02:23:16;;;;;;;18.20;10.27;;;;;;;;;;5065777;28;20044;-72
2023/12/19 02:25:42;;;;;;;18.67;9.65;;;;;;;;;;5056593;28;20055;-72
2023/12/19 02:28:09;;;;;;;20.40;10.50;;;;;;;;;;5064361;28;20488;-72
2023/12/19 02:30:35;;;;;;;15.82;9.40;;;;;;;;;;5065464;28;20485;-72
2023/12/19 02:33:02;;;;;;;15.75;8.77;;;;;;;;;;5066442;28;20051;-72
2023/12/19 02:35:28;;;;;;;17.48;9.48;;;;;;;;;;5067769;28;20059;-72
2023/12/19 02:37:57;;;;;;;11.77;7.07;;;;;;;;;;5068608;28;20041;-72
2023/12/19 02:40:24;;;;;;;13.77;8.13;;;;;;;;;;5069076;28;20087;-72
2023/12/19 02:42:50;;;;;;;15.15;9.23;;;;;;;;;;5054584;28;20049;-72
2023/12/19 02:45:16;;;;;;;15.98;9.32;;;;;;;;;;5067173;28;20110;-72
2023/12/19 02:47:42;;;;;;;15.77;9.40;;;;;;;;;;5059528;28;20475;-72
2023/12/19 02:50:08;;;;;;;13.90;8.65;;;;;;;;;;5064236;28;20464;-72
2023/12/19 02:52:34;;;;;;;18.88;10.65;;;;;;;;;;5060063;28;20081;-72
2023/12/19 02:55:00;;;;;;;14.93;9.88;;;;;;;;;;5066646;28;20044;-72
2023/12/19 02:57:26;;;;;;;12.90;8.32;;;;;;;;;;5063936;28;20052;-72
2023/12/19 02:59:53;;;;;;;20.00;10.50;;;;;;;;;;5065657;28;20191;-72
2023/12/19 03:02:19;;;;;;;19.02;9.95;;;;;;;;;;5064871;28;20079;-72
2023/12/19 03:04:45;;;;;;;21.33;10.77;;;;;;;;;;5066364;28;20532;-72
2023/12/19 03:07:11;;;;;;;15.45;8.90;;;;;;;;;;5069526;28;20044;-72
2023/12/19 03:09:37;;;;;;;19.70;10.60;;;;;;;;;;5055787;28;20060;-72
2023/12/19 03:12:04;;;;;;;15.38;9.52;;;;;;;;;;5066938;28;20055;-72
2023/12/19 03:14:31;;;;;;;19.50;9.82;;;;;;;;;;5062677;28;20048;-72
2023/12/19 03:16:57;;;;;;;16.00;9.45;;;;;;;;;;5064837;28;20044;-71
2023/12/19 03:19:23;;;;;;;13.35;8.55;;;;;;;;;;5059107;28;20048;-72
2023/12/19 03:21:49;;;;;;;17.90;10.52;;;;;;;;;;5063384;28;20059;-72
2023/12/19 03:24:21;;;;;;;18.73;9.93;;;;;;;;;;5060067;28;20040;-72
2023/12/19 03:26:47;;;;;;;19.95;10.52;;;;;;;;;;5062312;28;20063;-72
2023/12/19 03:29:13;;;;;;;15.75;8.85;;;;;;;;;;5062954;28;20431;-72
2023/12/19 03:31:39;;;;;;;14.25;9.05;;;;;;;;;;5056896;28;20527;-72
2023/12/19 03:34:05;;;;;;;15.95;10.20;;;;;;;;;;5060686;28;20515;-72
2023/12/19 03:36:34;;;;;;;14.85;9.70;;;;;;;;;;5059285;28;20036;-72
2023/12/19 03:39:03;;;;;;;18.83;9.32;;;;;;;;;;5060891;28;20472;-72
2023/12/19 03:41:32;;;;;;;20.17;10.05;;;;;;;;;;5062003;28;20588;-72
2023/12/19 03:43:58;;;;;;;20.38;10.38;;;;;;;;;;5061403;28;20059;-72
2023/12/19 03:46:24;;;;;;;14.90;7.38;;;;;;;;;;5067849;28;20185;-72
2023/12/19 03:48:50;;;;;;;16.90;8.63;;;;;;;;;;5063003;28;20484;-72
2023/12/19 03:51:16;;;;;;;15.30;8.70;;;;;;;;;;5065904;28;20037;-72
2023/12/19 03:53:42;;;;;;;17.75;9.32;;;;;;;;;;5061833;28;20098;-72
2023/12/19 03:56:08;;;;;;;11.52;7.18;;;;;;;;;;5066304;28;20040;-72
2023/12/19 03:58:34;;;;;;;26.20;11.23;;;;;;;;;;5067480;28;20062;-72
2023/12/19 04:01:01;;;;;;;17.73;9.40;;;;;;;;;;5062649;28;20144;-73
2023/12/19 04:03:29;;;;;;;21.63;10.52;;;;;;;;;;5066111;28;20035;-72
2023/12/19 04:05:55;;;;;;;23.05;10.80;;;;;;;;;;5067764;28;20106;-72
2023/12/19 04:08:21;;;;;;;26.05;11.25;;;;;;;;;;5062497;28;20044;-72
2023/12/19 04:10:47;;;;;;;29.42;11.88;;;;;;;;;;5066515;28;20473;-72
2023/12/19 04:13:14;;;;;;;17.25;9.73;;;;;;;;;;5067515;28;20048;-72
2023/12/19 04:15:40;;;;;;;28.70;11.32;;;;;;;;;;5065558;28;20159;-72
2023/12/19 04:18:06;;;;;;;17.70;9.65;;;;;;;;;;5066443;28;20057;-72
2023/12/19 04:20:32;;;;;;;18.10;9.48;;;;;;;;;;5067998;28;20503;-72
2023/12/19 04:22:58;;;;;;;13.48;7.30;;;;;;;;;;5070241;28;20049;-72
2023/12/19 04:25:24;;;;;;;22.10;10.48;;;;;;;;;;5072484;28;20049;-72
2023/12/19 04:27:50;;;;;;;24.30;9.98;;;;;;;;;;5067481;28;20132;-73
2023/12/19 04:30:16;;;;;;;17.15;8.52;;;;;;;;;;5060402;28;20068;-73
2023/12/19 04:32:42;;;;;;;16.90;8.40;;;;;;;;;;5073173;28;20139;-73
2023/12/19 04:35:08;;;;;;;14.07;6.47;;;;;;;;;;5064057;28;20047;-72
2023/12/19 04:37:34;;;;;;;21.88;9.05;;;;;;;;;;5055057;28;20473;-72
2023/12/19 04:40:02;;;;;;;18.17;9.60;;;;;;;;;;5050685;28;20048;-72
2023/12/19 04:42:32;;;;;;;18.70;8.15;;;;;;;;;;5059977;28;20037;-72
2023/12/19 04:44:58;;;;;;;22.20;8.85;;;;;;;;;;5070296;28;20119;-72
2023/12/19 04:47:24;;;;;;;21.20;9.52;;;;;;;;;;5067021;28;20139;-72
2023/12/19 04:49:53;;;;;;;17.88;8.40;;;;;;;;;;5067325;28;20416;-72
2023/12/19 04:52:19;;;;;;;20.10;8.73;;;;;;;;;;5059283;28;20119;-72
2023/12/19 04:54:45;;;;;;;24.95;9.50;;;;;;;;;;5062899;28;20452;-72
2023/12/19 04:57:12;;;;;;;20.40;8.75;;;;;;;;;;5065553;28;20130;-72
2023/12/19 04:59:38;;;;;;;19.30;8.30;;;;;;;;;;5065514;28;20424;-72
2023/12/19 05:02:04;;;;;;;13.57;7.75;;;;;;;;;;5063204;28;20515;-72
2023/12/19 05:04:30;;;;;;;18.25;9.05;;;;;;;;;;5056634;28;20044;-73
2023/12/19 05:06:56;;;;;;;21.75;8.68;;;;;;;;;;5066513;28;20052;-72
2023/12/19 05:09:22;;;;;;;20.27;8.90;;;;;;;;;;5063152;28;20036;-72
2023/12/19 05:11:48;;;;;;;18.38;9.38;;;;;;;;;;5065311;28;20383;-72
2023/12/19 05:14:14;;;;;;;14.27;6.82;;;;;;;;;;5067930;28;20068;-73
2023/12/19 05:16:40;;;;;;;15.32;7.72;;;;;;;;;;5065179;28;20538;-73
2023/12/19 05:19:06;;;;;;;18.83;8.77;;;;;;;;;;5066817;28;20435;-72
2023/12/19 05:21:39;;;;;;;11.75;6.80;;;;;;;;;;5064952;28;20056;-72
2023/12/19 05:24:05;;;;;;;18.42;8.82;;;;;;;;;;5059125;28;20091;-73
2023/12/19 05:26:31;;;;;;;13.57;8.32;;;;;;;;;;5059323;28;20047;-72
2023/12/19 05:28:57;;;;;;;13.27;7.18;;;;;;;;;;5065218;28;20534;-72
2023/12/19 05:31:24;;;;;;;14.07;6.45;;;;;;;;;;5063616;28;20037;-72
2023/12/19 05:33:50;;;;;;;16.90;8.00;;;;;;;;;;5066743;28;20036;-72
2023/12/19 05:36:16;;;;;;;21.65;9.70;;;;;;;;;;5059862;28;20509;-72
2023/12/19 05:38:42;;;;;;;21.80;7.78;;;;;;;;;;5065906;28;20048;-72
2023/12/19 05:41:09;;;;;;;19.15;7.28;;;;;;;;;;5065887;28;20045;-73
2023/12/19 05:43:38;;;;;;;21.08;7.32;;;;;;;;;;5061495;28;20044;-72
2023/12/19 05:46:04;;;;;;;24.58;7.93;;;;;;;;;;5086004;28;20052;-72
2023/12/19 05:48:30;;;;;;;16.65;7.50;;;;;;;;;;5065862;28;20143;-72
2023/12/19 05:50:56;;;;;;;14.40;7.32;;;;;;;;;;5068771;28;20052;-72
2023/12/19 05:53:25;;;;;;;18.30;7.75;;;;;;;;;;5061661;28;20465;-73
2023/12/19 05:55:51;;;;;;;14.02;7.43;;;;;;;;;;5068565;28;20131;-72
2023/12/19 05:58:20;;;;;;;19.08;7.85;;;;;;;;;;5065509;28;20139;-72
2023/12/19 06:00:48;;;;;;;19.58;7.47;;;;;;;;;;5062023;28;20122;-72
2023/12/19 06:03:14;;;;;;;21.10;7.88;;;;;;;;;;5064754;28;20045;-72
2023/12/19 06:05:40;;;;;;;19.13;6.93;;;;;;;;;;5063201;28;20049;-73
2023/12/19 06:08:07;;;;;;;27.42;7.95;;;;;;;;;;5057423;28;20070;-73
2023/12/19 06:10:33;;;;;;;19.65;7.80;;;;;;;;;;5066899;28;20045;-73
2023/12/19 06:13:00;;;;;;;21.65;8.52;;;;;;;;;;5069036;28;20048;-72
2023/12/19 06:15:26;;;;;;;12.70;5.97;;;;;;;;;;5064563;28;20045;-72
2023/12/19 06:17:52;;;;;;;28.50;13.65;;;;;;;;;;5056596;28;20080;-73
2023/12/19 06:20:18;;;;;;;21.25;8.80;;;;;;;;;;5062013;28;20076;-72
2023/12/19 06:22:44;;;;;;;18.45;8.25;;;;;;;;;;5061243;28;20048;-72
2023/12/19 06:25:10;;;;;;;21.27;8.32;;;;;;;;;;5067144;28;20509;-73
2023/12/19 06:27:36;;;;;;;13.07;6.65;;;;;;;;;;5059406;28;20039;-72
2023/12/19 06:30:03;;;;;;;17.00;8.38;;;;;;;;;;5058987;28;20049;-72
2023/12/19 06:32:29;;;;;;;23.98;9.35;;;;;;;;;;5066787;28;20041;-72
2023/12/19 06:34:58;;;;;;;20.90;9.23;;;;;;;;;;5071033;28;20219;-72
2023/12/19 06:37:24;;;;;;;22.73;9.13;;;;;;;;;;5070175;28;20045;-72
2023/12/19 06:39:50;;;;;;;19.23;7.88;;;;;;;;;;5060204;28;20071;-72
2023/12/19 06:42:19;;;;;;;15.90;7.50;;;;;;;;;;5063557;28;20051;-73
2023/12/19 06:44:46;;;;;;;20.63;9.32;;;;;;;;;;5068484;28;20052;-72
2023/12/19 06:47:16;;;;;;;27.52;9.13;;;;;;;;;;5065374;28;20053;-72
2023/12/19 06:49:43;;;;;;;17.98;9.20;;;;;;;;;;5063367;28;20053;-72
2023/12/19 06:52:10;;;;;;;16.35;8.07;;;;;;;;;;5060071;28;20118;-72
2023/12/19 06:54:39;;;;;;;19.05;8.23;;;;;;;;;;5063618;28;20055;-72
2023/12/19 06:57:08;;;;;;;14.38;7.20;;;;;;;;;;5059399;28;20032;-72
2023/12/19 06:59:34;;;;;;;14.57;6.80;;;;;;;;;;5057524;28;20412;-72
2023/12/19 07:02:00;;;;;;;16.33;6.40;;;;;;;;;;5065677;28;20036;-72
2023/12/19 07:04:26;;;;;;;12.15;6.03;;;;;;;;;;5066580;28;20128;-72
2023/12/19 07:06:53;;;;;;;13.32;7.05;;;;;;;;;;5061328;28;20495;-72
2023/12/19 07:09:19;;;;;;;18.17;7.20;;;;;;;;;;5056368;28;20113;-72
2023/12/19 07:11:45;;;;;;;18.48;7.78;;;;;;;;;;5059970;28;20866;-72
2023/12/19 07:14:12;;;;;;;17.70;7.47;;;;;;;;;;5055936;28;20398;-72
2023/12/19 07:16:38;;;;;;;23.73;8.07;;;;;;;;;;5065333;28;20516;-72
2023/12/19 07:19:04;;;;;;;15.48;6.88;;;;;;;;;;5057251;28;20076;-72
2023/12/19 07:21:32;;;;;;;13.73;6.80;;;;;;;;;;5060509;28;20053;-72
2023/12/19 07:23:59;;;;;;;15.48;6.57;;;;;;;;;;5059849;28;20125;-72
2023/12/19 07:26:27;;;;;;;15.50;6.00;;;;;;;;;;5063102;28;21881;-73
2023/12/19 07:28:54;;;;;;;12.05;6.03;;;;;;;;;;5055630;28;20040;-73
2023/12/19 07:31:20;;;;;;;13.05;6.18;;;;;;;;;;5069480;28;20148;-72
2023/12/19 07:33:46;;;;;;;12.15;5.78;;;;;;;;;;5051405;28;20041;-72
2023/12/19 07:36:12;;;;;;;12.50;5.85;;;;;;;;;;5061895;28;20579;-72
2023/12/19 07:38:39;;;;;;;13.10;5.80;;;;;;;;;;5063223;28;20102;-72
2023/12/19 07:41:05;;;;;;;16.75;7.65;;;;;;;;;;5067190;28;20456;-72
2023/12/19 07:43:32;;;;;;;22.23;9.13;;;;;;;;;;5062638;28;20171;-72
2023/12/19 07:46:01;;;;;;;20.67;8.88;;;;;;;;;;5067725;28;20515;-72
2023/12/19 07:48:27;;;;;;;21.55;8.65;;;;;;;;;;5063184;28;20550;-72
2023/12/19 07:50:57;;;;;;;22.83;8.48;;;;;;;;;;5063936;28;20107;-72
2023/12/19 07:53:25;;;;;;;20.00;8.45;;;;;;;;;;5064463;28;20037;-72
2023/12/19 07:55:52;;;;;;;22.02;8.98;;;;;;;;;;5062057;28;20074;-72
2023/12/19 07:58:18;;;;;;;27.13;9.70;;;;;;;;;;5064857;28;20044;-72
2023/12/19 08:00:44;;;;;;;22.20;9.35;;;;;;;;;;5060299;28;20481;-73
2023/12/19 08:03:11;;;;;;;21.80;9.10;;;;;;;;;;5061095;28;20048;-72
2023/12/19 08:05:50;;;;;;;29.50;9.50;;;;;;;;;;5060661;28;20055;-72
2023/12/19 08:08:16;;;;;;;21.67;8.60;;;;;;;;;;5056980;28;20135;-72
2023/12/19 08:10:44;;;;;;;22.13;7.93;;;;;;;;;;5059492;28;20037;-72
2023/12/19 08:13:12;;;;;;;21.20;7.75;;;;;;;;;;5060470;28;20045;-72
2023/12/19 08:15:40;;;;;;;26.40;8.90;;;;;;;;;;5064501;28;20044;-72
2023/12/19 08:18:06;;;;;;;23.92;7.45;;;;;;;;;;5057826;28;20123;-72
2023/12/19 08:20:35;;;;;;;30.77;7.88;;;;;;;;;;5066242;28;20094;-72
2023/12/19 08:23:02;;;;;;;30.58;8.93;;;;;;;;;;5063914;28;20049;-72
2023/12/19 08:25:28;;;;;;;27.77;8.05;;;;;;;;;;5063247;28;20044;-72
2023/12/19 08:27:54;;;;;;;24.60;7.80;;;;;;;;;;5054538;28;20084;-72
2023/12/19 08:30:22;;;;;;;20.33;8.40;;;;;;;;;;5060778;28;20036;-72
2023/12/19 08:32:48;;;;;;;31.17;8.38;;;;;;;;;;5059717;28;20045;-72
2023/12/19 08:35:20;;;;;;;27.77;8.55;;;;;;;;;;5064284;28;20037;-72
2023/12/19 08:37:46;;;;;;;35.22;9.35;;;;;;;;;;5065654;28;20522;-72
2023/12/19 08:40:12;;;;;;;22.30;7.25;;;;;;;;;;5063768;28;20076;-72
2023/12/19 08:42:38;;;;;;;31.95;9.20;;;;;;;;;;5070178;28;20048;-72
2023/12/19 08:45:34;;;;;;;30.92;7.95;;;;;;;;;;5071237;28;20045;-72
2023/12/19 08:48:00;;;;;;;33.58;8.73;;;;;;;;;;5040154;28;20449;-72
2023/12/19 08:50:29;;;;;;;28.20;8.40;;;;;;;;;;5066107;28;20052;-71
2023/12/19 08:52:55;;;;;;;30.48;8.73;;;;;;;;;;5068042;28;20376;-73
2023/12/19 08:55:22;;;;;;;25.58;8.45;;;;;;;;;;5068234;28;20048;-72
2023/12/19 08:57:49;;;;;;;32.28;9.48;;;;;;;;;;5064122;28;20044;-72
2023/12/19 09:00:17;;;;;;;32.83;9.10;;;;;;;;;;5067884;28;20079;-71
2023/12/19 09:02:43;;;;;;;31.30;8.30;;;;;;;;;;5064475;28;20049;-72
2023/12/19 09:05:16;;;;;;;23.17;8.73;;;;;;;;;;5062479;28;20084;-71
2023/12/19 09:07:46;;;;;;;23.77;8.10;;;;;;;;;;5064737;28;20032;-72
2023/12/19 09:10:13;;;;;;;25.70;8.10;;;;;;;;;;5067587;28;20052;-71
2023/12/19 09:12:40;;;;;;;26.25;8.82;;;;;;;;;;5063140;28;20055;-71
2023/12/19 09:15:06;;;;;;;30.63;9.15;;;;;;;;;;5068779;28;20044;-71
2023/12/19 09:17:33;;;;;;;23.48;8.80;;;;;;;;;;5068922;28;20052;-72
2023/12/19 09:20:06;;;;;;;29.55;9.23;;;;;;;;;;5062525;28;20127;-72
2023/12/19 09:22:32;;;;;;;21.25;8.63;;;;;;;;;;5065493;28;20044;-72
2023/12/19 09:25:01;;;;;;;30.85;9.55;;;;;;;;;;5070980;28;20050;-71
2023/12/19 09:27:28;;;;;;;25.05;8.70;;;;;;;;;;5061466;28;20131;-71
2023/12/19 09:29:54;;;;;;;21.00;8.93;;;;;;;;;;5068149;28;20050;-71
2023/12/19 09:32:20;;;;;;;24.70;9.05;;;;;;;;;;5067062;28;20120;-71
2023/12/19 09:34:46;;;;;;;29.30;8.50;;;;;;;;;;5066520;28;20059;-71
2023/12/19 09:37:12;;;;;;;25.02;9.23;;;;;;;;;;5069296;28;20044;-71
2023/12/19 09:39:38;;;;;;;27.35;8.80;;;;;;;;;;5069069;28;20044;-71
2023/12/19 09:42:06;;;;;;;24.35;8.07;;;;;;;;;;5068046;28;20055;-71
2023/12/19 09:44:32;;;;;;;17.55;6.97;;;;;;;;;;5060800;28;20056;-71
2023/12/19 09:46:58;;;;;;;20.38;7.50;;;;;;;;;;5067036;28;20049;-72
2023/12/19 09:49:25;;;;;;;23.05;8.40;;;;;;;;;;5063233;28;20048;-71
2023/12/19 09:51:52;;;;;;;20.85;7.82;;;;;;;;;;5070201;28;20527;-72
2023/12/19 09:54:22;;;;;;;20.17;7.28;;;;;;;;;;5066236;28;20135;-71
2023/12/19 09:56:48;;;;;;;17.08;7.78;;;;;;;;;;5065925;28;20045;-72
2023/12/19 09:59:18;;;;;;;22.05;6.80;;;;;;;;;;5063849;28;20044;-71
2023/12/19 10:01:44;;;;;;;22.30;8.05;;;;;;;;;;5058541;28;20045;-71
2023/12/19 10:04:13;;;;;;;23.17;8.18;;;;;;;;;;5064912;28;20044;-72
2023/12/19 10:06:54;;;;;;;32.80;9.60;;;;;;;;;;5067331;28;20507;-72
2023/12/19 10:09:24;;;;;;;33.65;9.52;;;;;;;;;;5065314;28;20072;-72
2023/12/19 10:12:27;;;;;;;28.55;12.30;;;;;;;;;;5069152;28;20040;-71
2023/12/19 10:14:53;;;;;;;42.53;20.37;;;;;;;;;;4969247;28;20054;-71
2023/12/19 10:17:22;;;;;;;33.92;10.98;;;;;;;;;;5049673;28;20067;-71
2023/12/19 10:19:51;;;;;;;47.85;9.02;;;;;;;;;;5065162;28;20044;-72
2023/12/19 10:22:19;;;;;;;30.83;7.95;;;;;;;;;;5061542;28;20061;-71
2023/12/19 10:24:46;;;;;;;41.65;7.57;;;;;;;;;;5056121;28;20056;-71
2023/12/19 10:27:12;;;;;;;39.03;8.57;;;;;;;;;;5067404;28;20049;-72
2023/12/19 10:29:39;;;;;;;51.45;8.60;;;;;;;;;;5068163;28;20052;-71
2023/12/19 10:32:23;;;;;;;42.03;8.73;;;;;;;;;;5060698;28;20416;-71
2023/12/19 10:34:58;;;;;;;47.97;8.98;;;;;;;;;;5061810;28;20090;-71
2023/12/19 10:37:27;;;;;;;32.70;7.50;;;;;;;;;;5066520;28;20155;-71
2023/12/19 10:40:09;;;;;;;48.05;8.00;;;;;;;;;;5068039;28;20060;-71
2023/12/19 10:42:35;;;;;;;26.70;7.32;;;;;;;;;;5065256;28;20048;-71
2023/12/19 10:45:03;;;;;;;13.00;6.43;;;;;;;;;;5066787;28;20052;-71
2023/12/19 10:47:32;;;;;;;14.80;7.10;;;;;;;;;;5064107;28;20044;-71
2023/12/19 10:49:58;;;;;;;11.25;6.57;;;;;;;;;;5062161;28;20059;-71
2023/12/19 10:52:27;;;;;;;18.13;7.28;;;;;;;;;;5063999;28;20037;-71
2023/12/19 10:55:00;;;;;;;15.73;6.53;;;;;;;;;;5062426;28;20036;-71
2023/12/19 10:57:26;;;;;;;;;;;;;;;;;;5066182;28;20448;-71
2023/12/19 11:00:01;;;;;;;12.00;6.22;;;;;;;;;;5067589;28;19963;-72
2023/12/19 11:02:30;;;;;;;22.52;6.32;;;;;;;;;;5064773;28;20070;-72
2023/12/19 11:05:05;;;;;;;19.90;6.80;;;;;;;;;;5064201;28;20106;-71
2023/12/19 11:07:34;;;;;;;25.83;7.07;;;;;;;;;;5058401;28;20090;-71
2023/12/19 11:10:05;;;;;;;20.67;7.00;;;;;;;;;;5063173;28;20045;-72
2023/12/19 11:12:31;;;;;;;32.22;7.55;;;;;;;;;;5063426;28;20048;-71
2023/12/19 11:14:57;;;;;;;37.00;7.72;;;;;;;;;;5057315;28;20957;-71
2023/12/19 11:17:35;;;;;;;25.63;8.13;;;;;;;;;;5053341;28;20036;-71
2023/12/19 11:20:14;;;;;;;18.80;7.90;;;;;;;;;;5063216;28;20045;-72
2023/12/19 11:22:45;;;;;;;18.05;6.90;;;;;;;;;;5063795;28;20110;-71
2023/12/19 11:25:21;;;;;;;16.75;6.15;;;;;;;;;;5065836;28;20044;-73
2023/12/19 11:27:50;;;;;;;26.65;7.13;;;;;;;;;;5055404;28;20051;-73
2023/12/19 11:30:36;;;;;;;17.63;6.50;;;;;;;;;;5062342;28;20439;-73
2023/12/19 11:33:03;;;;;;;25.98;6.63;;;;;;;;;;5062928;28;20045;-73
2023/12/19 11:35:30;;;;;;;15.82;5.78;;;;;;;;;;5065385;28;20052;-73
2023/12/19 11:38:20;;;;;;;9.80;5.25;;;;;;;;;;5055498;28;20400;-73
2023/12/19 11:40:46;;;;;;;9.07;3.88;;;;;;;;;;5064835;28;20045;-73
2023/12/19 11:43:28;;;;;;;17.65;5.45;;;;;;;;;;5057455;28;21493;-74
2023/12/19 11:45:58;;;;;;;12.45;4.80;;;;;;;;;;5063211;28;20045;-75
2023/12/19 11:48:37;;;;;;;12.05;4.45;;;;;;;;;;5063358;28;20057;-74
2023/12/19 11:51:10;;;;;;;11.23;5.00;;;;;;;;;;5065175;28;20131;-74
2023/12/19 11:53:36;;;;;;;8.10;4.15;;;;;;;;;;5065247;28;20148;-75
2023/12/19 11:56:31;;;;;;;12.07;4.47;;;;;;;;;;5064005;28;20045;-75
2023/12/19 11:58:57;;;;;;;12.93;4.35;;;;;;;;;;5059053;28;20049;-74
2023/12/19 12:01:23;;;;;;;12.45;3.90;;;;;;;;;;5062803;28;20055;-75
2023/12/19 12:03:49;;;;;;;12.30;4.25;;;;;;;;;;5059330;28;20044;-75
2023/12/19 12:06:20;;;;;;;7.35;3.50;;;;;;;;;;5064746;28;20048;-75
2023/12/19 12:08:53;;;;;;;8.90;3.42;;;;;;;;;;5062903;28;20048;-74
2023/12/19 12:11:19;;;;;;;8.70;3.15;;;;;;;;;;5065944;28;20063;-74
2023/12/19 12:13:59;;;;;;;4.90;2.85;;;;;;;;;;5071540;28;20044;-74
2023/12/19 12:16:34;;;;;;;8.43;2.88;;;;;;;;;;5070393;28;20135;-74
2023/12/19 12:19:08;;;;;;;10.38;3.10;;;;;;;;;;5064856;28;20128;-74
2023/12/19 12:21:34;;;;;;;10.43;3.13;;;;;;;;;;5064844;28;20089;-75
2023/12/19 12:24:01;;;;;;;9.90;2.95;;;;;;;;;;5062969;28;20068;-74
2023/12/19 12:26:27;;;;;;;6.65;2.83;;;;;;;;;;5070370;28;20500;-74
2023/12/19 12:28:54;;;;;;;11.15;3.13;;;;;;;;;;5065393;28;20094;-74
2023/12/19 12:31:20;;;;;;;10.32;3.50;;;;;;;;;;5064259;28;20090;-75
2023/12/19 12:33:46;;;;;;;9.95;2.65;;;;;;;;;;5069542;28;20098;-74
2023/12/19 12:36:13;;;;;;;12.68;3.50;;;;;;;;;;5065318;28;20056;-74
2023/12/19 12:38:41;;;;;;;10.80;3.75;;;;;;;;;;5069249;28;20029;-74
2023/12/19 12:41:09;;;;;;;8.05;3.22;;;;;;;;;;5067876;28;20515;-74
2023/12/19 12:43:49;;;;;;;11.48;3.35;;;;;;;;;;5066552;28;20052;-74
2023/12/19 12:46:16;;;;;;;13.52;3.85;;;;;;;;;;5068104;28;20400;-74
2023/12/19 12:48:44;;;;;;;12.85;3.08;;;;;;;;;;5062654;28;20552;-74
2023/12/19 12:51:10;;;;;;;8.38;3.20;;;;;;;;;;5065378;28;20049;-74
2023/12/19 12:53:37;;;;;;;9.93;3.10;;;;;;;;;;5063504;28;20040;-74
2023/12/19 12:56:06;;;;;;;13.75;3.42;;;;;;;;;;5062447;28;20053;-74
2023/12/19 12:58:33;;;;;;;12.38;3.08;;;;;;;;;;5069660;28;20044;-74
2023/12/19 13:01:00;;;;;;;8.43;2.50;;;;;;;;;;5067586;28;20052;-72
2023/12/19 13:03:27;;;;;;;10.05;3.10;;;;;;;;;;5067937;28;20052;-72
2023/12/19 13:05:53;;;;;;;12.50;3.05;;;;;;;;;;5061858;28;20068;-72
2023/12/19 13:08:19;;;;;;;15.75;3.50;;;;;;;;;;5063225;28;20142;-72
2023/12/19 13:10:48;;;;;;;13.20;3.53;;;;;;;;;;5070014;28;20439;-71
2023/12/19 13:13:14;;;;;;;11.77;2.90;;;;;;;;;;5065923;28;20127;-72
2023/12/19 13:15:40;;;;;;;8.55;2.85;;;;;;;;;;5065412;28;20131;-72
2023/12/19 13:18:06;;;;;;;11.77;2.97;;;;;;;;;;5061213;28;20130;-72
2023/12/19 13:20:34;;;;;;;6.10;2.88;;;;;;;;;;5065230;28;20182;-71
2023/12/19 13:23:00;;;;;;;12.07;3.78;;;;;;;;;;5065732;28;20044;-72
2023/12/19 13:25:27;;;;;;;10.13;3.42;;;;;;;;;;5064367;28;20194;-72
2023/12/19 13:27:54;;;;;;;12.82;3.03;;;;;;;;;;5065901;28;20044;-72
2023/12/19 13:30:20;;;;;;;9.52;3.00;;;;;;;;;;5068448;28;20045;-72
2023/12/19 13:32:46;;;;;;;10.18;3.13;;;;;;;;;;5069187;28;20044;-72
2023/12/19 13:35:12;;;;;;;10.43;3.10;;;;;;;;;;5056350;28;20048;-72
2023/12/19 13:37:38;;;;;;;15.35;3.17;;;;;;;;;;5064254;28;20041;-72
2023/12/19 13:40:09;;;;;;;16.05;3.30;;;;;;;;;;5060908;28;20448;-72
2023/12/19 13:42:35;;;;;;;17.52;3.50;;;;;;;;;;5064580;28;20072;-72
2023/12/19 13:45:04;;;;;;;8.63;3.22;;;;;;;;;;5067303;28;20512;-72
2023/12/19 13:47:30;;;;;;;11.45;3.53;;;;;;;;;;5064972;28;20056;-71
2023/12/19 13:49:56;;;;;;;12.07;3.70;;;;;;;;;;5066242;28;20048;-72
2023/12/19 13:52:25;;;;;;;13.25;3.30;;;;;;;;;;5065288;28;20067;-72
2023/12/19 13:54:51;;;;;;;8.95;3.67;;;;;;;;;;5069006;28;20162;-72
2023/12/19 13:57:17;;;;;;;15.07;4.03;;;;;;;;;;5065528;28;20056;-71
2023/12/19 13:59:43;;;;;;;12.70;3.78;;;;;;;;;;5069360;28;20060;-72
2023/12/19 14:02:09;;;;;;;13.98;3.97;;;;;;;;;;5065333;28;20098;-72
2023/12/19 14:04:35;;;;;;;14.25;4.45;;;;;;;;;;5061895;28;20068;-72
2023/12/19 14:07:01;;;;;;;16.45;4.45;;;;;;;;;;5061866;28;20064;-72
2023/12/19 14:09:29;;;;;;;15.23;3.85;;;;;;;;;;5064014;28;20484;-72
2023/12/19 14:11:55;;;;;;;15.60;4.40;;;;;;;;;;5063041;28;20053;-72
2023/12/19 14:14:22;;;;;;;14.98;4.22;;;;;;;;;;5065534;28;20494;-71
2023/12/19 14:16:48;;;;;;;20.55;4.55;;;;;;;;;;5061431;28;20049;-71
2023/12/19 14:19:17;;;;;;;14.90;4.28;;;;;;;;;;5058324;28;20123;-72
2023/12/19 14:21:43;;;;;;;16.05;4.07;;;;;;;;;;5062231;28;20054;-71
2023/12/19 14:24:09;;;;;;;14.00;4.60;;;;;;;;;;5068667;28;20051;-72
2023/12/19 14:26:37;;;;;;;13.85;3.70;;;;;;;;;;5066563;28;20105;-74
2023/12/19 14:29:03;;;;;;;18.35;4.15;;;;;;;;;;5064849;28;20051;-74
2023/12/19 14:31:29;;;;;;;16.48;4.10;;;;;;;;;;5064093;28;20044;-74